Time;durP1;ratioP1;P1;durP2;ratioP2;P2;SDS_P1;SDS_P2;PMS_P1;PMS_P2;Temp;Humidity;BMP_temperature;BMP_pressure;BME280_temperature;BME280_humidity;BME280_pressure;Samples;Min_cycle;Max_cycle;Signal;HPM_P1;HPM_P2
2023/04/20 00:00:31;;;;;;;4.35;1.55;;;;;;;;;;4999562;28;20280;-73
2023/04/20 00:02:58;;;;;;;4.20;1.45;;;;;;;;;;5010268;28;20053;-72
2023/04/20 00:05:24;;;;;;;4.63;1.70;;;;;;;;;;5008530;28;20089;-72
2023/04/20 00:07:53;;;;;;;2.30;1.23;;;;;;;;;;4998186;28;20115;-72
2023/04/20 00:10:20;;;;;;;4.18;1.38;;;;;;;;;;5011181;28;20080;-72
2023/04/20 00:12:47;;;;;;;3.97;1.38;;;;;;;;;;4992782;28;20073;-72
2023/04/20 00:15:15;;;;;;;3.90;1.15;;;;;;;;;;5014691;28;20060;-72
2023/04/20 00:17:43;;;;;;;4.00;1.42;;;;;;;;;;5001984;28;20049;-72
2023/04/20 00:20:11;;;;;;;5.00;1.30;;;;;;;;;;5009551;28;20055;-72
2023/04/20 00:22:38;;;;;;;2.20;1.20;;;;;;;;;;5003251;28;20327;-73
2023/04/20 00:28:27;;;;;;;3.70;1.35;;;;;;;;;;4982514;28;20140;-73
2023/04/20 00:30:55;;;;;;;4.80;1.40;;;;;;;;;;5012977;28;20054;-73
2023/04/20 00:33:22;;;;;;;3.47;1.33;;;;;;;;;;5010554;28;20171;-73
2023/04/20 00:35:49;;;;;;;2.75;1.30;;;;;;;;;;5010177;28;20050;-73
2023/04/20 00:38:15;;;;;;;6.88;1.67;;;;;;;;;;5002756;28;20045;-73
2023/04/20 00:40:42;;;;;;;6.88;1.42;;;;;;;;;;5003120;28;20103;-73
2023/04/20 00:43:10;;;;;;;2.53;1.30;;;;;;;;;;5009689;28;20107;-73
2023/04/20 00:45:37;;;;;;;2.95;1.25;;;;;;;;;;5009784;28;20045;-73
2023/04/20 00:48:05;;;;;;;2.78;1.35;;;;;;;;;;4997304;28;20049;-74
2023/04/20 00:50:32;;;;;;;3.38;1.40;;;;;;;;;;5006186;28;20053;-73
2023/04/20 00:52:59;;;;;;;2.17;1.10;;;;;;;;;;5009317;28;20049;-73
2023/04/20 00:55:26;;;;;;;4.13;1.50;;;;;;;;;;5018929;28;20045;-73
2023/04/20 00:57:53;;;;;;;4.90;1.33;;;;;;;;;;5009296;28;20190;-74
2023/04/20 01:00:21;;;;;;;2.97;1.45;;;;;;;;;;5019881;28;20049;-73
2023/04/20 01:02:48;;;;;;;4.43;1.67;;;;;;;;;;5011183;28;20085;-73
2023/04/20 01:05:16;;;;;;;3.58;1.58;;;;;;;;;;5019892;28;20084;-73
2023/04/20 01:07:42;;;;;;;2.03;1.30;;;;;;;;;;5016612;28;20065;-73
2023/04/20 01:10:10;;;;;;;3.38;1.52;;;;;;;;;;5021672;28;20132;-73
2023/04/20 01:12:37;;;;;;;4.28;1.50;;;;;;;;;;5009590;28;20057;-73
2023/04/20 01:15:04;;;;;;;4.00;1.55;;;;;;;;;;5013247;28;20147;-73
2023/04/20 01:17:32;;;;;;;2.42;1.35;;;;;;;;;;5016185;28;20115;-73
2023/04/20 01:19:58;;;;;;;2.92;1.33;;;;;;;;;;5021073;28;20055;-73
2023/04/20 01:22:27;;;;;;;3.90;1.65;;;;;;;;;;5017270;28;20080;-72
2023/04/20 01:24:54;;;;;;;2.97;1.30;;;;;;;;;;5016287;28;20231;-73
2023/04/20 01:27:20;;;;;;;5.22;1.50;;;;;;;;;;5016074;28;20072;-74
2023/04/20 01:29:47;;;;;;;3.42;1.30;;;;;;;;;;5016465;28;20068;-73
2023/04/20 01:32:14;;;;;;;2.95;1.50;;;;;;;;;;5019401;28;20056;-73
2023/04/20 01:34:41;;;;;;;2.90;1.30;;;;;;;;;;5007431;28;20052;-73
2023/04/20 01:37:08;;;;;;;2.67;1.50;;;;;;;;;;5014463;28;20073;-73
2023/04/20 01:39:37;;;;;;;3.38;1.55;;;;;;;;;;5018630;28;20056;-73
2023/04/20 01:42:03;;;;;;;;;;;;;;;;;;5019463;28;20061;-73
2023/04/20 01:44:30;;;;;;;3.58;1.40;;;;;;;;;;5012719;28;20019;-73
2023/04/20 01:46:57;;;;;;;3.92;1.60;;;;;;;;;;5017049;28;20138;-73
2023/04/20 01:49:24;;;;;;;4.03;1.60;;;;;;;;;;5010359;28;20056;-73
2023/04/20 01:51:50;;;;;;;4.78;1.63;;;;;;;;;;5015926;28;20053;-73
2023/04/20 01:54:17;;;;;;;2.90;1.48;;;;;;;;;;5014561;28;20045;-73
2023/04/20 01:56:45;;;;;;;6.03;1.63;;;;;;;;;;4999647;28;20060;-73
2023/04/20 01:59:12;;;;;;;5.68;1.58;;;;;;;;;;5015888;28;20053;-73
2023/04/20 02:01:39;;;;;;;2.15;1.20;;;;;;;;;;5008110;28;20172;-72
2023/04/20 02:04:05;;;;;;;7.57;1.80;;;;;;;;;;4990705;28;20091;-72
2023/04/20 02:06:33;;;;;;;6.72;1.85;;;;;;;;;;4998961;28;20049;-72
2023/04/20 02:08:59;;;;;;;3.25;1.30;;;;;;;;;;5008169;28;20056;-73
2023/04/20 02:11:26;;;;;;;4.43;1.67;;;;;;;;;;5011740;28;20057;-72
2023/04/20 02:13:55;;;;;;;3.72;1.40;;;;;;;;;;5011706;28;20050;-72
2023/04/20 02:16:23;;;;;;;9.57;1.80;;;;;;;;;;5013202;28;20060;-72
2023/04/20 02:18:50;;;;;;;4.80;1.75;;;;;;;;;;5007277;28;20063;-72
2023/04/20 02:21:17;;;;;;;3.72;1.60;;;;;;;;;;5004042;28;20228;-72
2023/04/20 02:23:44;;;;;;;3.28;1.60;;;;;;;;;;5013548;28;20234;-72
2023/04/20 02:26:11;;;;;;;3.97;2.13;;;;;;;;;;4998839;28;20049;-73
2023/04/20 02:28:37;;;;;;;4.20;2.00;;;;;;;;;;5015225;28;20081;-73
2023/04/20 02:31:05;;;;;;;6.10;1.60;;;;;;;;;;5010441;28;20061;-72
2023/04/20 02:33:32;;;;;;;4.30;1.70;;;;;;;;;;5011174;28;20061;-73
2023/04/20 02:35:59;;;;;;;3.95;1.55;;;;;;;;;;5012015;28;20053;-72
2023/04/20 02:38:26;;;;;;;4.45;1.70;;;;;;;;;;5011069;28;20061;-72
2023/04/20 02:40:55;;;;;;;3.30;1.23;;;;;;;;;;5014258;28;20049;-72
2023/04/20 02:43:22;;;;;;;5.03;1.60;;;;;;;;;;5011743;28;20057;-72
2023/04/20 02:45:48;;;;;;;4.63;1.63;;;;;;;;;;5016289;28;20080;-74
2023/04/20 02:48:17;;;;;;;3.75;1.58;;;;;;;;;;5009918;28;20113;-72
2023/04/20 02:50:44;;;;;;;2.92;1.48;;;;;;;;;;5019794;28;20064;-73
2023/04/20 02:53:13;;;;;;;3.08;1.50;;;;;;;;;;4992283;28;20053;-73
2023/04/20 02:55:40;;;;;;;3.22;1.65;;;;;;;;;;5004957;28;20210;-73
2023/04/20 02:58:07;;;;;;;3.35;1.60;;;;;;;;;;5014200;28;20057;-73
2023/04/20 03:00:36;;;;;;;3.53;1.55;;;;;;;;;;5017237;28;20045;-73
2023/04/20 03:03:03;;;;;;;3.83;1.73;;;;;;;;;;4994473;28;20063;-73
2023/04/20 03:05:32;;;;;;;4.10;1.70;;;;;;;;;;5010220;28;20137;-73
2023/04/20 03:07:58;;;;;;;4.05;1.60;;;;;;;;;;5013678;28;20083;-73
2023/04/20 03:10:25;;;;;;;7.80;1.70;;;;;;;;;;5019748;28;20081;-73
2023/04/20 03:12:55;;;;;;;3.80;1.58;;;;;;;;;;5014750;28;20127;-72
2023/04/20 03:15:22;;;;;;;4.60;1.80;;;;;;;;;;4990886;28;20057;-73
2023/04/20 03:17:49;;;;;;;4.45;1.73;;;;;;;;;;5018291;28;20063;-73
2023/04/20 03:20:16;;;;;;;3.97;1.50;;;;;;;;;;5012992;28;20053;-73
2023/04/20 03:22:44;;;;;;;3.40;1.75;;;;;;;;;;5020014;28;20053;-74
2023/04/20 03:25:11;;;;;;;4.78;1.92;;;;;;;;;;4982034;28;20053;-73
2023/04/20 03:27:38;;;;;;;3.78;1.63;;;;;;;;;;5017695;28;20103;-73
2023/04/20 03:30:07;;;;;;;3.95;1.80;;;;;;;;;;5013519;28;20053;-73
2023/04/20 03:32:34;;;;;;;4.43;1.58;;;;;;;;;;5023809;28;20057;-72
2023/04/20 03:35:01;;;;;;;2.95;1.40;;;;;;;;;;5002814;28;20044;-73
2023/04/20 03:37:28;;;;;;;3.58;1.33;;;;;;;;;;5048764;28;20072;-72
2023/04/20 03:39:56;;;;;;;4.18;1.83;;;;;;;;;;5013904;28;20057;-72
2023/04/20 03:42:23;;;;;;;3.35;1.75;;;;;;;;;;5030909;28;20114;-72
2023/04/20 03:44:50;;;;;;;2.88;1.60;;;;;;;;;;4995737;28;20094;-73
2023/04/20 03:47:17;;;;;;;4.57;1.70;;;;;;;;;;5019023;28;20067;-73
2023/04/20 03:49:44;;;;;;;4.40;1.80;;;;;;;;;;5013143;28;20056;-72
2023/04/20 03:52:10;;;;;;;3.58;1.80;;;;;;;;;;5017553;28;20056;-73
2023/04/20 03:54:37;;;;;;;4.68;1.90;;;;;;;;;;5006708;28;20065;-73
2023/04/20 03:57:07;;;;;;;2.60;1.58;;;;;;;;;;5009295;28;20081;-72
2023/04/20 03:59:33;;;;;;;4.30;1.92;;;;;;;;;;5016980;28;20054;-72
2023/04/20 04:02:00;;;;;;;5.97;1.75;;;;;;;;;;4996857;28;20068;-73
2023/04/20 04:04:27;;;;;;;3.08;1.73;;;;;;;;;;4998072;28;20065;-72
2023/04/20 04:06:54;;;;;;;3.60;1.65;;;;;;;;;;5012291;28;20059;-72
2023/04/20 04:09:25;;;;;;;4.90;1.65;;;;;;;;;;5011605;28;20056;-73
2023/04/20 04:11:52;;;;;;;4.20;1.85;;;;;;;;;;5012865;28;20128;-73
2023/04/20 04:14:20;;;;;;;4.97;1.65;;;;;;;;;;4998345;28;20089;-72
2023/04/20 04:16:47;;;;;;;3.60;1.45;;;;;;;;;;5012565;28;20048;-73
2023/04/20 04:19:14;;;;;;;4.25;1.70;;;;;;;;;;5006345;28;20156;-72
2023/04/20 04:21:41;;;;;;;7.65;1.88;;;;;;;;;;5011970;28;20120;-72
2023/04/20 04:24:08;;;;;;;5.85;1.50;;;;;;;;;;5009296;28;20137;-73
2023/04/20 04:26:35;;;;;;;5.18;1.60;;;;;;;;;;5005169;28;20045;-73
2023/04/20 04:29:03;;;;;;;3.92;1.48;;;;;;;;;;5012670;28;20119;-73
2023/04/20 04:31:32;;;;;;;4.28;1.90;;;;;;;;;;5020248;28;20079;-72
2023/04/20 04:34:04;;;;;;;2.45;1.40;;;;;;;;;;5012890;28;20053;-72
2023/04/20 04:36:31;;;;;;;5.35;1.75;;;;;;;;;;4997917;28;20046;-73
2023/04/20 04:39:00;;;;;;;4.55;1.75;;;;;;;;;;4998348;28;20045;-72
2023/04/20 04:41:27;;;;;;;6.38;2.00;;;;;;;;;;4988947;28;20056;-72
2023/04/20 04:43:58;;;;;;;5.63;1.67;;;;;;;;;;5023451;28;20057;-72
2023/04/20 04:46:28;;;;;;;5.38;2.05;;;;;;;;;;4955712;28;20107;-73
2023/04/20 04:48:59;;;;;;;5.57;1.77;;;;;;;;;;4999689;28;20077;-73
2023/04/20 04:51:26;;;;;;;5.32;1.60;;;;;;;;;;4995095;28;20057;-73
2023/04/20 04:53:59;;;;;;;4.38;1.73;;;;;;;;;;5000750;28;20052;-73
2023/04/20 04:56:26;;;;;;;4.22;1.90;;;;;;;;;;4978812;28;20054;-72
2023/04/20 04:59:03;;;;;;;;;;;;;;;;;;;;;
2023/04/20 05:01:30;;;;;;;3.38;1.70;;;;;;;;;;4990319;28;20053;-73
2023/04/20 05:04:01;;;;;;;4.15;1.75;;;;;;;;;;5004381;28;20050;-73
2023/04/20 05:06:28;;;;;;;4.53;1.52;;;;;;;;;;5000081;28;20054;-72
2023/04/20 05:09:01;;;;;;;8.02;1.75;;;;;;;;;;5023982;28;20054;-73
2023/04/20 05:11:30;;;;;;;4.05;1.67;;;;;;;;;;4988596;28;20057;-73
2023/04/20 05:13:57;;;;;;;4.53;1.95;;;;;;;;;;4992643;28;20094;-72
2023/04/20 05:16:24;;;;;;;5.50;2.00;;;;;;;;;;4970669;28;20204;-73
2023/04/20 05:18:51;;;;;;;3.55;1.55;;;;;;;;;;4980734;28;20079;-73
2023/04/20 05:21:22;;;;;;;4.72;1.80;;;;;;;;;;4989849;28;20062;-73
2023/04/20 05:23:48;;;;;;;3.47;1.50;;;;;;;;;;5007688;28;20130;-73
2023/04/20 05:26:15;;;;;;;4.20;1.60;;;;;;;;;;5010136;28;20054;-72
2023/04/20 05:28:42;;;;;;;4.65;1.65;;;;;;;;;;4991375;28;20073;-73
2023/04/20 05:31:08;;;;;;;7.97;1.90;;;;;;;;;;4992163;28;20061;-73
2023/04/20 05:33:35;;;;;;;4.75;1.80;;;;;;;;;;5011829;28;20053;-72
2023/04/20 05:36:03;;;;;;;4.00;1.73;;;;;;;;;;5012873;28;20100;-72
2023/04/20 05:38:32;;;;;;;4.28;1.85;;;;;;;;;;4994109;28;20057;-73
2023/04/20 05:41:01;;;;;;;;;;;;;;;;;;4978497;28;20058;-73
2023/04/20 05:43:28;;;;;;;3.83;1.75;;;;;;;;;;4989135;28;20032;-73
2023/04/20 05:45:55;;;;;;;4.25;2.03;;;;;;;;;;5001078;28;20053;-73
2023/04/20 05:48:26;;;;;;;3.78;1.73;;;;;;;;;;4999721;28;20065;-74
2023/04/20 05:50:55;;;;;;;3.45;1.58;;;;;;;;;;4993562;28;20057;-73
2023/04/20 05:53:22;;;;;;;6.28;1.80;;;;;;;;;;5010204;28;20060;-72
2023/04/20 05:55:53;;;;;;;5.18;1.80;;;;;;;;;;5000647;28;20064;-73
2023/04/20 05:58:22;;;;;;;3.40;1.80;;;;;;;;;;4997468;28;20061;-72
2023/04/20 06:00:49;;;;;;;5.35;1.98;;;;;;;;;;5006423;28;20083;-73
2023/04/20 06:03:19;;;;;;;3.20;1.35;;;;;;;;;;4998909;28;20052;-73
2023/04/20 06:05:46;;;;;;;3.40;1.60;;;;;;;;;;4982086;28;20076;-73
2023/04/20 06:08:13;;;;;;;7.13;1.80;;;;;;;;;;5008269;28;20053;-73
2023/04/20 06:10:39;;;;;;;8.15;1.83;;;;;;;;;;5011432;28;20045;-73
2023/04/20 06:13:08;;;;;;;4.30;1.98;;;;;;;;;;5006445;28;20127;-73
2023/04/20 06:15:35;;;;;;;3.83;1.67;;;;;;;;;;5007952;28;20053;-73
2023/04/20 06:18:04;;;;;;;4.25;1.52;;;;;;;;;;5016214;28;20050;-73
2023/04/20 06:20:31;;;;;;;3.80;1.60;;;;;;;;;;5012893;28;20049;-73
2023/04/20 06:22:58;;;;;;;4.47;1.52;;;;;;;;;;5015668;28;20061;-73
2023/04/20 06:25:25;;;;;;;4.60;1.60;;;;;;;;;;4972780;28;20054;-73
2023/04/20 06:27:52;;;;;;;5.18;1.73;;;;;;;;;;5015796;28;20057;-73
2023/04/20 06:30:20;;;;;;;3.90;1.63;;;;;;;;;;5017246;28;20084;-72
2023/04/20 06:32:47;;;;;;;2.45;1.38;;;;;;;;;;5010761;28;20127;-73
2023/04/20 06:35:15;;;;;;;4.22;1.70;;;;;;;;;;4991437;28;20083;-72
2023/04/20 06:37:42;;;;;;;4.38;1.65;;;;;;;;;;5011023;28;20053;-72
2023/04/20 06:40:09;;;;;;;6.25;1.63;;;;;;;;;;5009147;28;20197;-73
2023/04/20 06:42:36;;;;;;;4.57;1.73;;;;;;;;;;5016913;28;20057;-73
2023/04/20 06:45:03;;;;;;;5.35;1.58;;;;;;;;;;5009396;28;20053;-73
2023/04/20 06:47:32;;;;;;;5.97;1.70;;;;;;;;;;5008343;28;20057;-72
2023/04/20 06:49:59;;;;;;;5.90;2.10;;;;;;;;;;5006666;28;20057;-73
2023/04/20 06:52:27;;;;;;;6.65;2.08;;;;;;;;;;5015321;28;20057;-72
2023/04/20 06:54:58;;;;;;;3.47;1.63;;;;;;;;;;5010232;28;20076;-74
2023/04/20 06:57:25;;;;;;;4.53;2.00;;;;;;;;;;5012555;28;20071;-72
2023/04/20 06:59:54;;;;;;;6.13;2.17;;;;;;;;;;5029889;28;20095;-74
2023/04/20 07:02:20;;;;;;;4.38;1.65;;;;;;;;;;5004951;28;20053;-73
2023/04/20 07:04:49;;;;;;;4.57;2.03;;;;;;;;;;5003712;28;20057;-74
2023/04/20 07:07:16;;;;;;;8.07;2.55;;;;;;;;;;5009693;28;20064;-73
2023/04/20 07:09:42;;;;;;;4.53;2.13;;;;;;;;;;5013324;28;20054;-73
2023/04/20 07:12:14;;;;;;;5.30;2.28;;;;;;;;;;4998276;28;20083;-74
2023/04/20 07:14:42;;;;;;;8.85;2.10;;;;;;;;;;4981919;28;20067;-71
2023/04/20 07:17:09;;;;;;;8.20;2.50;;;;;;;;;;4999381;28;20057;-73
2023/04/20 07:19:36;;;;;;;5.25;2.30;;;;;;;;;;5015058;28;20065;-73
2023/04/20 07:22:04;;;;;;;6.50;2.53;;;;;;;;;;5010671;28;20064;-73
2023/04/20 07:24:33;;;;;;;4.55;2.20;;;;;;;;;;5001880;28;20058;-73
2023/04/20 07:27:00;;;;;;;8.00;2.53;;;;;;;;;;5015880;28;20056;-73
2023/04/20 07:29:27;;;;;;;6.95;2.60;;;;;;;;;;5003716;28;20080;-74
2023/04/20 07:31:54;;;;;;;8.48;2.70;;;;;;;;;;5013265;28;20045;-73
2023/04/20 07:34:23;;;;;;;6.30;2.17;;;;;;;;;;4987943;28;20076;-73
2023/04/20 07:36:55;;;;;;;6.13;2.58;;;;;;;;;;5006921;28;20238;-73
2023/04/20 07:39:27;;;;;;;6.13;2.63;;;;;;;;;;5008499;28;20819;-74
2023/04/20 07:41:54;;;;;;;5.57;2.22;;;;;;;;;;5003631;28;20084;-73
2023/04/20 07:44:21;;;;;;;5.57;2.47;;;;;;;;;;5003470;28;20131;-73
2023/04/20 07:46:48;;;;;;;5.90;2.60;;;;;;;;;;5014940;28;20053;-73
2023/04/20 07:49:15;;;;;;;6.60;2.40;;;;;;;;;;5000667;28;20348;-73
2023/04/20 07:51:42;;;;;;;5.40;2.40;;;;;;;;;;5017144;28;20053;-72
2023/04/20 07:54:09;;;;;;;5.45;2.45;;;;;;;;;;5002833;28;20053;-73
2023/04/20 07:56:37;;;;;;;5.65;2.20;;;;;;;;;;5004294;28;20044;-73
2023/04/20 07:59:04;;;;;;;7.72;2.08;;;;;;;;;;5007571;28;20053;-73
2023/04/20 08:01:31;;;;;;;5.50;2.42;;;;;;;;;;5015688;28;20053;-72
2023/04/20 08:03:58;;;;;;;9.07;2.67;;;;;;;;;;5008101;28;20052;-73
2023/04/20 08:06:26;;;;;;;6.43;2.75;;;;;;;;;;5009317;28;20045;-73
2023/04/20 08:08:58;;;;;;;9.18;2.55;;;;;;;;;;5017375;28;20052;-74
2023/04/20 08:11:27;;;;;;;5.43;2.60;;;;;;;;;;5003361;28;20075;-73
2023/04/20 08:13:56;;;;;;;6.65;2.45;;;;;;;;;;5047933;28;20056;-73
2023/04/20 08:16:22;;;;;;;6.43;2.50;;;;;;;;;;5006717;28;20072;-74
2023/04/20 08:18:57;;;;;;;7.28;2.65;;;;;;;;;;5005756;28;20057;-73
2023/04/20 08:21:24;;;;;;;7.75;2.95;;;;;;;;;;5009714;28;20053;-73
2023/04/20 08:23:51;;;;;;;6.85;2.60;;;;;;;;;;5018288;28;20060;-73
2023/04/20 08:26:18;;;;;;;6.05;2.58;;;;;;;;;;4991721;28;20110;-73
2023/04/20 08:28:44;;;;;;;4.82;2.10;;;;;;;;;;5033823;28;20087;-73
2023/04/20 08:31:13;;;;;;;4.82;2.40;;;;;;;;;;5011716;28;20062;-74
2023/04/20 08:33:40;;;;;;;6.07;2.45;;;;;;;;;;5013169;28;20053;-73
2023/04/20 08:36:07;;;;;;;6.43;2.50;;;;;;;;;;5002622;28;20097;-73
2023/04/20 08:38:34;;;;;;;7.55;2.33;;;;;;;;;;5017115;28;20128;-73
2023/04/20 08:41:01;;;;;;;6.13;2.40;;;;;;;;;;5001998;28;20116;-73
2023/04/20 08:43:28;;;;;;;5.40;2.40;;;;;;;;;;5006105;28;20056;-73
2023/04/20 08:45:57;;;;;;;5.43;2.53;;;;;;;;;;5004997;28;20087;-73
2023/04/20 08:48:26;;;;;;;8.55;2.40;;;;;;;;;;5009361;28;20072;-73
2023/04/20 08:50:53;;;;;;;;;;;;;;;;;;5007988;28;20084;-73
2023/04/20 08:53:20;;;;;;;5.00;2.33;;;;;;;;;;5003960;28;19951;-73
2023/04/20 08:55:48;;;;;;;6.88;2.70;;;;;;;;;;4995788;28;20059;-73
2023/04/20 08:58:15;;;;;;;5.80;2.65;;;;;;;;;;5009889;28;20098;-73
2023/04/20 09:00:46;;;;;;;5.50;2.50;;;;;;;;;;5022678;28;20060;-73
2023/04/20 09:03:12;;;;;;;5.22;2.60;;;;;;;;;;5019632;28;20123;-74
2023/04/20 09:05:41;;;;;;;5.60;2.40;;;;;;;;;;4993940;28;20068;-73
2023/04/20 09:08:08;;;;;;;4.93;2.50;;;;;;;;;;5013192;28;20060;-73
2023/04/20 09:10:39;;;;;;;6.00;2.55;;;;;;;;;;5017054;28;20067;-73
2023/04/20 09:13:06;;;;;;;5.55;2.70;;;;;;;;;;5008991;28;20060;-74
2023/04/20 09:15:33;;;;;;;5.80;2.40;;;;;;;;;;5007503;28;20128;-74
2023/04/20 09:18:22;;;;;;;7.28;2.70;;;;;;;;;;5017793;28;20116;-73
2023/04/20 09:20:52;;;;;;;7.25;3.00;;;;;;;;;;5014142;28;20153;-73
2023/04/20 09:23:20;;;;;;;7.95;2.38;;;;;;;;;;5010126;28;20147;-73
2023/04/20 09:25:51;;;;;;;8.40;2.83;;;;;;;;;;5003594;28;20111;-73
2023/04/20 09:28:18;;;;;;;5.85;2.80;;;;;;;;;;5016781;28;20160;-73
2023/04/20 09:30:47;;;;;;;6.63;3.20;;;;;;;;;;5017017;28;20048;-73
2023/04/20 09:33:14;;;;;;;5.88;2.55;;;;;;;;;;5011444;28;20061;-73
2023/04/20 09:35:42;;;;;;;6.20;2.72;;;;;;;;;;5015697;28;20057;-73
2023/04/20 09:38:10;;;;;;;5.60;2.58;;;;;;;;;;5017775;28;20114;-73
2023/04/20 09:40:39;;;;;;;8.23;2.72;;;;;;;;;;5024754;28;20053;-73
2023/04/20 09:43:09;;;;;;;6.43;2.85;;;;;;;;;;5009157;28;20144;-73
2023/04/20 09:45:38;;;;;;;5.75;2.72;;;;;;;;;;5013155;28;20137;-73
2023/04/20 09:48:05;;;;;;;8.23;2.95;;;;;;;;;;5018171;28;20052;-72
2023/04/20 09:50:32;;;;;;;4.80;2.53;;;;;;;;;;5004632;28;20048;-73
2023/04/20 09:53:01;;;;;;;5.85;2.58;;;;;;;;;;5017700;28;20052;-73
2023/04/20 09:55:30;;;;;;;6.32;2.63;;;;;;;;;;5000048;28;20052;-74
2023/04/20 09:57:57;;;;;;;6.18;2.67;;;;;;;;;;5005970;28;20041;-73
2023/04/20 10:00:24;;;;;;;10.52;2.85;;;;;;;;;;5006818;28;20073;-73
2023/04/20 10:02:53;;;;;;;5.07;2.33;;;;;;;;;;5015216;28;20144;-73
2023/04/20 10:05:21;;;;;;;10.57;2.95;;;;;;;;;;4979991;28;20100;-73
2023/04/20 10:07:58;;;;;;;7.97;2.65;;;;;;;;;;5001359;28;20061;-73
2023/04/20 10:10:25;;;;;;;6.72;2.97;;;;;;;;;;5000303;28;20061;-73
2023/04/20 10:12:57;;;;;;;6.53;2.65;;;;;;;;;;5000833;28;20049;-73
2023/04/20 10:15:26;;;;;;;7.57;2.58;;;;;;;;;;4993296;28;20072;-73
2023/04/20 10:17:52;;;;;;;;;;;;;;;;;;5009588;28;20076;-73
2023/04/20 10:20:20;;;;;;;5.05;2.35;;;;;;;;;;4998446;28;19967;-73
2023/04/20 10:22:54;;;;;;;8.13;3.03;;;;;;;;;;5017438;28;20068;-73
2023/04/20 10:25:27;;;;;;;6.03;2.80;;;;;;;;;;4982109;28;20140;-74
2023/04/20 10:28:03;;;;;;;5.75;2.70;;;;;;;;;;5019705;28;20060;-73
2023/04/20 10:30:30;;;;;;;6.95;2.58;;;;;;;;;;4997052;28;20053;-73
2023/04/20 10:33:08;;;;;;;5.55;2.70;;;;;;;;;;5014470;28;20085;-73
2023/04/20 10:35:41;;;;;;;6.68;2.80;;;;;;;;;;4987839;28;20150;-73
2023/04/20 10:38:09;;;;;;;7.20;3.20;;;;;;;;;;5016189;28;20057;-73
2023/04/20 10:40:35;;;;;;;7.07;2.85;;;;;;;;;;4994832;28;20059;-73
2023/04/20 10:43:17;;;;;;;5.78;2.83;;;;;;;;;;4990729;28;20088;-73
2023/04/20 10:45:46;;;;;;;6.07;2.67;;;;;;;;;;4981087;28;20094;-73
2023/04/20 10:48:13;;;;;;;;;;;;;;;;;;4988454;28;20050;-73
2023/04/20 10:50:40;;;;;;;7.25;2.42;;;;;;;;;;4999010;28;19921;-74
2023/04/20 10:53:17;;;;;;;9.40;2.53;;;;;;;;;;4978639;28;20133;-73
2023/04/20 10:55:46;;;;;;;4.65;2.10;;;;;;;;;;4999209;28;20053;-73
2023/04/20 10:58:24;;;;;;;7.10;2.85;;;;;;;;;;5008392;28;20057;-73
2023/04/20 11:00:58;;;;;;;4.65;2.15;;;;;;;;;;5019623;28;20056;-73
2023/04/20 11:03:27;;;;;;;5.05;2.35;;;;;;;;;;5007402;28;20060;-73
2023/04/20 11:05:56;;;;;;;5.93;2.22;;;;;;;;;;5015132;28;20364;-72
2023/04/20 11:08:23;;;;;;;4.13;2.28;;;;;;;;;;5013348;28;20076;-72
2023/04/20 11:10:55;;;;;;;6.35;2.75;;;;;;;;;;5018251;28;20156;-72
2023/04/20 11:13:24;;;;;;;4.88;2.20;;;;;;;;;;4995916;28;20049;-73
2023/04/20 11:15:53;;;;;;;5.47;2.25;;;;;;;;;;4993000;28;20123;-73
2023/04/20 11:18:20;;;;;;;4.78;2.38;;;;;;;;;;5021120;28;20148;-73
2023/04/20 11:20:51;;;;;;;5.35;2.35;;;;;;;;;;5018606;28;20085;-72
2023/04/20 11:23:21;;;;;;;4.90;2.20;;;;;;;;;;5007878;28;20057;-72
2023/04/20 11:25:51;;;;;;;6.25;2.50;;;;;;;;;;4990472;28;20143;-73
2023/04/20 11:28:18;;;;;;;6.57;2.35;;;;;;;;;;5003830;28;20057;-74
2023/04/20 11:30:54;;;;;;;4.97;2.50;;;;;;;;;;5005649;28;20099;-74
2023/04/20 11:33:28;;;;;;;9.40;2.35;;;;;;;;;;5003181;28;20064;-73
2023/04/20 11:35:57;;;;;;;7.40;3.20;;;;;;;;;;5024535;28;20053;-73
2023/04/20 11:38:27;;;;;;;5.13;2.22;;;;;;;;;;5024085;28;20056;-73
2023/04/20 11:41:05;;;;;;;5.15;2.50;;;;;;;;;;5034605;28;20060;-74
2023/04/20 11:43:32;;;;;;;3.97;2.30;;;;;;;;;;4999675;28;20052;-73
2023/04/20 11:46:01;;;;;;;4.25;1.85;;;;;;;;;;5000983;28;20413;-73
2023/04/20 11:48:32;;;;;;;5.43;2.55;;;;;;;;;;5012398;28;20049;-75
2023/04/20 11:51:07;;;;;;;5.88;2.20;;;;;;;;;;5007546;28;20059;-73
2023/04/20 11:53:34;;;;;;;4.47;2.30;;;;;;;;;;5017416;28;20060;-73
2023/04/20 11:56:02;;;;;;;5.13;2.30;;;;;;;;;;4993259;28;20120;-74
2023/04/20 11:58:32;;;;;;;4.65;2.13;;;;;;;;;;5023548;28;20080;-73
2023/04/20 12:01:05;;;;;;;6.50;2.58;;;;;;;;;;5021470;28;20103;-73
2023/04/20 12:03:33;;;;;;;4.82;2.55;;;;;;;;;;5018755;28;20053;-75
2023/04/20 12:06:00;;;;;;;;;;;;;;;;;;5014059;28;20060;-73
2023/04/20 12:08:28;;;;;;;4.10;1.95;;;;;;;;;;5018764;28;20102;-74
2023/04/20 12:10:58;;;;;;;5.20;2.78;;;;;;;;;;5015203;28;20049;-74
2023/04/20 12:13:25;;;;;;;5.13;2.30;;;;;;;;;;5012190;28;20048;-73
2023/04/20 12:15:52;;;;;;;5.82;2.38;;;;;;;;;;4982810;28;20122;-73
2023/04/20 12:18:22;;;;;;;5.20;2.40;;;;;;;;;;5018667;28;20063;-73
2023/04/20 12:20:50;;;;;;;5.35;2.42;;;;;;;;;;5005123;28;20055;-74
2023/04/20 12:23:20;;;;;;;4.72;2.38;;;;;;;;;;5008350;28;20083;-74
2023/04/20 12:25:50;;;;;;;6.95;2.50;;;;;;;;;;4984698;28;20061;-73
2023/04/20 12:28:17;;;;;;;4.57;2.30;;;;;;;;;;4989307;28;20057;-74
2023/04/20 12:33:24;;;;;;;4.50;2.35;;;;;;;;;;5014602;28;20065;-74
2023/04/20 12:35:57;;;;;;;5.80;2.33;;;;;;;;;;4972699;28;20060;-75
2023/04/20 12:38:36;;;;;;;5.55;2.58;;;;;;;;;;5007050;28;20167;-73
2023/04/20 12:41:05;;;;;;;6.88;2.90;;;;;;;;;;4973097;28;20057;-74
2023/04/20 12:43:33;;;;;;;4.80;2.45;;;;;;;;;;4996738;28;20063;-74
2023/04/20 12:46:00;;;;;;;6.15;2.80;;;;;;;;;;4980876;28;20075;-74
2023/04/20 12:48:27;;;;;;;8.00;2.80;;;;;;;;;;4994050;28;20090;-74
2023/04/20 12:50:56;;;;;;;6.00;2.85;;;;;;;;;;4993288;28;20053;-74
2023/04/20 12:53:23;;;;;;;5.82;2.83;;;;;;;;;;5000023;28;20181;-74
2023/04/20 12:55:57;;;;;;;7.03;3.05;;;;;;;;;;4989289;28;20065;-74
2023/04/20 12:58:24;;;;;;;6.30;2.83;;;;;;;;;;5002322;28;20061;-74
2023/04/20 13:00:54;;;;;;;6.97;2.88;;;;;;;;;;5003421;28;20057;-74
2023/04/20 13:03:30;;;;;;;5.70;2.58;;;;;;;;;;5007273;28;20067;-74
2023/04/20 13:06:04;;;;;;;6.05;2.78;;;;;;;;;;4977079;28;20132;-74
2023/04/20 13:08:36;;;;;;;6.75;3.03;;;;;;;;;;4991341;28;20048;-74
2023/04/20 13:11:06;;;;;;;7.25;2.97;;;;;;;;;;4996128;28;20063;-75
2023/04/20 13:13:37;;;;;;;6.78;3.10;;;;;;;;;;4968212;28;20058;-74
2023/04/20 13:16:04;;;;;;;5.97;2.83;;;;;;;;;;5003378;28;20052;-73
2023/04/20 13:18:33;;;;;;;7.10;3.28;;;;;;;;;;4975537;28;20049;-73
2023/04/20 13:21:04;;;;;;;6.20;3.10;;;;;;;;;;4977568;28;20054;-74
2023/04/20 13:23:38;;;;;;;8.30;3.15;;;;;;;;;;4982983;28;20063;-74
2023/04/20 13:26:06;;;;;;;6.75;3.05;;;;;;;;;;4979222;28;20120;-74
2023/04/20 13:28:33;;;;;;;5.68;2.63;;;;;;;;;;4987242;28;20139;-75
2023/04/20 13:31:10;;;;;;;5.75;2.72;;;;;;;;;;5005713;28;20064;-74
2023/04/20 13:33:37;;;;;;;7.32;3.08;;;;;;;;;;4992373;28;20046;-75
2023/04/20 13:36:09;;;;;;;6.53;3.00;;;;;;;;;;4996555;28;20071;-73
2023/04/20 13:38:36;;;;;;;;;;;;;;;;;;5012520;28;20049;-74
2023/04/20 13:41:03;;;;;;;5.18;2.60;;;;;;;;;;4980230;28;19979;-75
2023/04/20 13:43:35;;;;;;;6.93;3.45;;;;;;;;;;5027869;28;20058;-73
2023/04/20 13:46:02;;;;;;;6.55;3.15;;;;;;;;;;5000093;28;20063;-74
2023/04/20 13:48:29;;;;;;;7.50;2.90;;;;;;;;;;5018365;28;20049;-73
2023/04/20 13:50:56;;;;;;;8.40;3.38;;;;;;;;;;5016696;28;20064;-73
2023/04/20 13:53:24;;;;;;;7.05;3.35;;;;;;;;;;5005808;28;20077;-73
2023/04/20 13:55:51;;;;;;;6.50;3.13;;;;;;;;;;5005276;28;20334;-73
2023/04/20 13:58:20;;;;;;;8.65;3.28;;;;;;;;;;5007670;28;20113;-73
2023/04/20 14:00:47;;;;;;;5.93;3.15;;;;;;;;;;4983330;28;20057;-73
2023/04/20 14:03:14;;;;;;;6.20;2.80;;;;;;;;;;5007288;28;20049;-73
2023/04/20 14:05:43;;;;;;;9.40;3.42;;;;;;;;;;4997914;28;20061;-73
2023/04/20 14:08:09;;;;;;;;;;;;;;;;;;5014659;28;20052;-73
2023/04/20 14:10:44;;;;;;;6.78;3.20;;;;;;;;;;5003199;28;19925;-73
2023/04/20 14:13:10;;;;;;;7.05;3.17;;;;;;;;;;5013187;28;20060;-72
2023/04/20 14:15:37;;;;;;;6.10;3.40;;;;;;;;;;4996341;28;20083;-73
2023/04/20 14:18:09;;;;;;;8.25;3.78;;;;;;;;;;5029278;28;20049;-72
2023/04/20 14:20:37;;;;;;;6.57;3.10;;;;;;;;;;4984320;28;20053;-73
2023/04/20 14:23:07;;;;;;;9.10;4.13;;;;;;;;;;5023052;28;20057;-73
2023/04/20 14:25:34;;;;;;;6.60;3.50;;;;;;;;;;4999515;28;20079;-73
2023/04/20 14:28:03;;;;;;;7.20;3.60;;;;;;;;;;5011165;28;20116;-73
2023/04/20 14:30:32;;;;;;;6.32;3.22;;;;;;;;;;4982650;28;20060;-73
2023/04/20 14:33:02;;;;;;;7.28;3.80;;;;;;;;;;4989650;28;20049;-73
2023/04/20 14:35:32;;;;;;;7.72;3.70;;;;;;;;;;5006056;28;20060;-73
2023/04/20 14:38:00;;;;;;;9.35;3.45;;;;;;;;;;5033061;28;20076;-73
2023/04/20 14:40:27;;;;;;;7.15;3.35;;;;;;;;;;5020100;28;20052;-73
2023/04/20 14:42:58;;;;;;;7.68;3.40;;;;;;;;;;5020203;28;20137;-72
2023/04/20 14:45:26;;;;;;;10.68;3.60;;;;;;;;;;4977645;28;20084;-74
2023/04/20 14:47:53;;;;;;;7.07;3.50;;;;;;;;;;5018569;28;20053;-73
2023/04/20 14:50:26;;;;;;;5.82;3.17;;;;;;;;;;5018342;28;20056;-72
2023/04/20 14:53:00;;;;;;;6.90;3.63;;;;;;;;;;5020522;28;20061;-72
2023/04/20 14:55:27;;;;;;;7.80;3.55;;;;;;;;;;4988929;28;20254;-73
2023/04/20 14:57:55;;;;;;;7.18;3.42;;;;;;;;;;5011978;28;20050;-72